Time;durP1;ratioP1;P1;durP2;ratioP2;P2;SDS_P1;SDS_P2;PMS_P1;PMS_P2;Temp;Humidity;BMP_temperature;BMP_pressure;BME280_temperature;BME280_humidity;BME280_pressure;Samples;Min_cycle;Max_cycle;Signal;HPM_P1;HPM_P2
2023/09/26 00:00:14;;;;;;;;;;;11.90;67.40;;;;;;4154475;28;20398;-87
2023/09/26 00:02:15;;;;;;;;;;;11.90;67.40;;;;;;4152431;28;20366;-86
2023/09/26 00:04:16;;;;;;;;;;;12.00;67.50;;;;;;4152344;28;19917;-87
2023/09/26 00:06:19;;;;;;;;;;;12.00;67.50;;;;;;4170614;28;19912;-88
2023/09/26 00:08:19;;;;;;;;;;;11.90;67.50;;;;;;4139350;28;20274;-87
2023/09/26 00:10:21;;;;;;;;;;;11.90;67.60;;;;;;4173072;28;19923;-87
2023/09/26 00:12:22;;;;;;;;;;;11.90;67.50;;;;;;4172372;28;20015;-87
2023/09/26 00:14:22;;;;;;;;;;;11.90;67.50;;;;;;4167046;28;19948;-87
2023/09/26 00:16:23;;;;;;;;;;;11.90;67.60;;;;;;4151305;28;19959;-87
2023/09/26 00:18:24;;;;;;;;;;;11.90;67.70;;;;;;4172507;28;20397;-88
2023/09/26 00:20:26;;;;;;;;;;;11.90;67.60;;;;;;4171059;28;19928;-87
2023/09/26 00:22:27;;;;;;;;;;;11.90;67.80;;;;;;4151924;28;19925;-87
2023/09/26 00:24:28;;;;;;;;;;;11.80;67.80;;;;;;4169927;28;20126;-87
2023/09/26 00:26:28;;;;;;;;;;;11.90;67.90;;;;;;4171555;28;19931;-87
2023/09/26 00:28:29;;;;;;;;;;;11.90;68.90;;;;;;4165093;28;20012;-87
2023/09/26 00:30:30;;;;;;;;;;;11.80;68.70;;;;;;4172758;28;19921;-87
2023/09/26 00:32:32;;;;;;;;;;;11.80;68.40;;;;;;4170062;28;20047;-87
2023/09/26 00:34:32;;;;;;;;;;;11.70;68.20;;;;;;4135933;28;19941;-87
2023/09/26 00:36:33;;;;;;;;;;;11.80;68.10;;;;;;4146887;28;20439;-88
2023/09/26 00:38:33;;;;;;;;;;;11.80;68.10;;;;;;4168180;28;20425;-87
2023/09/26 00:40:34;;;;;;;;;;;11.80;68.20;;;;;;4139090;28;19918;-86
2023/09/26 00:42:46;;;;;;;;;;;11.80;68.20;;;;;;4153572;28;20622;-87
2023/09/26 00:44:46;;;;;;;;;;;11.80;68.40;;;;;;4153993;28;19913;-88
2023/09/26 00:46:47;;;;;;;;;;;11.70;68.20;;;;;;4171973;28;20465;-86
2023/09/26 00:48:48;;;;;;;;;;;11.80;68.30;;;;;;4154284;28;20705;-87
2023/09/26 00:50:49;;;;;;;;;;;11.80;68.30;;;;;;4170781;28;20051;-87
2023/09/26 00:52:51;;;;;;;;;;;11.60;68.20;;;;;;4169960;28;19921;-87
2023/09/26 00:54:52;;;;;;;;;;;11.70;68.30;;;;;;4138956;28;19965;-87
2023/09/26 00:57:12;;;;;;;;;;;11.70;68.50;;;;;;4157581;28;19913;-86
2023/09/26 00:59:33;;;;;;;;;;;11.70;68.50;;;;;;4155779;28;19928;-87
2023/09/26 01:01:54;;;;;;;;;;;11.70;68.50;;;;;;4172366;28;19917;-87
2023/09/26 01:04:15;;;;;;;;;;;11.60;68.50;;;;;;4152840;28;19921;-88
2023/09/26 01:06:36;;;;;;;;;;;11.60;68.50;;;;;;4166643;28;19923;-88
2023/09/26 01:08:57;;;;;;;;;;;11.70;68.70;;;;;;4150136;28;19917;-87
2023/09/26 01:11:17;;;;;;;;;;;11.60;68.70;;;;;;4171549;28;20018;-87
2023/09/26 01:13:18;;;;;;;;;;;11.70;68.80;;;;;;4171695;28;20745;-87
2023/09/26 01:15:31;;;;;;;;;;;11.60;68.80;;;;;;4168372;28;19928;-87
2023/09/26 01:17:32;;;;;;;;;;;11.60;68.90;;;;;;4165654;28;19944;-87
2023/09/26 01:19:32;;;;;;;;;;;11.60;68.90;;;;;;4152458;28;20410;-87
2023/09/26 01:21:33;;;;;;;;;;;11.60;69.00;;;;;;4164966;28;20378;-87
2023/09/26 01:23:35;;;;;;;;;;;11.70;69.10;;;;;;4149348;28;19972;-87
2023/09/26 01:25:36;;;;;;;;;;;11.70;69.10;;;;;;4166306;28;19913;-87
2023/09/26 01:27:37;;;;;;;;;;;11.60;69.10;;;;;;4149826;28;20004;-87
2023/09/26 01:29:37;;;;;;;;;;;11.60;69.00;;;;;;4156588;28;19921;-88
2023/09/26 01:31:38;;;;;;;;;;;11.70;68.90;;;;;;4170060;28;20393;-86
2023/09/26 01:33:38;;;;;;;;;;;11.60;68.90;;;;;;4169973;28;20416;-88
2023/09/26 01:35:39;;;;;;;;;;;11.70;69.10;;;;;;4167079;28;20421;-87
2023/09/26 01:37:39;;;;;;;;;;;11.70;69.20;;;;;;4169524;28;19936;-88
2023/09/26 01:39:40;;;;;;;;;;;11.70;69.10;;;;;;4150455;28;20619;-87
2023/09/26 01:41:41;;;;;;;;;;;11.60;69.80;;;;;;4156792;28;20419;-88
2023/09/26 01:43:41;;;;;;;;;;;11.70;69.10;;;;;;4148896;28;20414;-87
2023/09/26 01:45:42;;;;;;;;;;;11.80;69.30;;;;;;4172154;28;20429;-88
2023/09/26 01:47:45;;;;;;;;;;;11.70;69.20;;;;;;4170415;28;20441;-87
2023/09/26 01:49:46;;;;;;;;;;;11.80;69.40;;;;;;4152806;28;19913;-87
2023/09/26 01:51:46;;;;;;;;;;;11.70;69.40;;;;;;4166433;28;19923;-88
2023/09/26 01:53:48;;;;;;;;;;;11.70;69.30;;;;;;4169186;28;19913;-87
2023/09/26 01:55:48;;;;;;;;;;;11.70;69.40;;;;;;4159661;28;19921;-87
2023/09/26 01:57:50;;;;;;;;;;;11.80;69.50;;;;;;4138797;28;20315;-87
2023/09/26 01:59:51;;;;;;;;;;;11.80;69.50;;;;;;4146066;28;20703;-87
2023/09/26 02:01:51;;;;;;;;;;;11.70;70.10;;;;;;4147765;28;20941;-87
2023/09/26 02:03:52;;;;;;;;;;;11.80;69.50;;;;;;4166190;28;19913;-86
2023/09/26 02:05:55;;;;;;;;;;;11.70;69.40;;;;;;4167991;28;20341;-87
2023/09/26 02:07:56;;;;;;;;;;;11.70;69.50;;;;;;4166183;28;19927;-87
2023/09/26 02:09:57;;;;;;;;;;;11.70;69.50;;;;;;4167822;28;19988;-86
2023/09/26 02:11:58;;;;;;;;;;;11.80;69.60;;;;;;4163770;28;19925;-87
2023/09/26 02:13:58;;;;;;;;;;;11.70;69.60;;;;;;4173801;28;19928;-88
2023/09/26 02:15:59;;;;;;;;;;;11.80;69.70;;;;;;4149303;28;19924;-88
2023/09/26 02:17:59;;;;;;;;;;;11.70;69.60;;;;;;4166958;28;19913;-87
2023/09/26 02:20:00;;;;;;;;;;;11.70;69.50;;;;;;4149013;28;20012;-87
2023/09/26 02:22:02;;;;;;;;;;;11.60;69.50;;;;;;4146523;28;20006;-88
2023/09/26 02:24:02;;;;;;;;;;;11.70;69.60;;;;;;4151209;28;19923;-87
2023/09/26 02:26:03;;;;;;;;;;;11.60;69.60;;;;;;4152520;28;20395;-87
2023/09/26 02:28:23;;;;;;;;;;;11.60;69.60;;;;;;4143992;28;19918;-87
2023/09/26 02:30:44;;;;;;;;;;;11.70;69.70;;;;;;4149858;28;19937;-87
2023/09/26 02:32:48;;;;;;;;;;;11.60;69.60;;;;;;4150101;28;20888;-88
2023/09/26 02:35:13;;;;;;;;;;;11.60;69.60;;;;;;4165504;28;19947;-88
2023/09/26 02:37:33;;;;;;;;;;;11.60;69.70;;;;;;4153741;28;19917;-87
2023/09/26 02:39:54;;;;;;;;;;;11.60;69.70;;;;;;4168419;28;19917;-87
2023/09/26 02:42:15;;;;;;;;;;;11.60;69.60;;;;;;4154522;28;19917;-87
2023/09/26 02:44:35;;;;;;;;;;;11.60;69.60;;;;;;4166285;28;20016;-87
2023/09/26 02:46:56;;;;;;;;;;;11.50;69.40;;;;;;4164490;28;20015;-87
2023/09/26 02:49:16;;;;;;;;;;;11.60;69.40;;;;;;4151210;28;19921;-87
2023/09/26 02:51:37;;;;;;;;;;;11.50;69.50;;;;;;4157382;28;19965;-87
2023/09/26 02:53:57;;;;;;;;;;;11.50;69.50;;;;;;4162044;28;20357;-88
2023/09/26 02:56:18;;;;;;;;;;;11.50;69.60;;;;;;4169117;28;19928;-87
2023/09/26 02:58:38;;;;;;;;;;;11.50;69.70;;;;;;4153841;28;19996;-87
2023/09/26 03:01:00;;;;;;;;;;;11.50;69.80;;;;;;4158383;28;19936;-88
2023/09/26 03:03:21;;;;;;;;;;;11.50;69.90;;;;;;4175136;28;19933;-87
2023/09/26 03:05:48;;;;;;;;;;;11.50;69.80;;;;;;4176183;28;19905;-87
2023/09/26 03:08:09;;;;;;;;;;;11.50;69.70;;;;;;4173176;28;19984;-88
2023/09/26 03:10:29;;;;;;;;;;;11.40;69.80;;;;;;4175156;28;20054;-87
2023/09/26 03:12:30;;;;;;;;;;;11.50;70.00;;;;;;4168570;28;20279;-87
2023/09/26 03:14:30;;;;;;;;;;;11.40;70.00;;;;;;4168330;28;19943;-86
2023/09/26 03:16:31;;;;;;;;;;;11.40;70.00;;;;;;4169951;28;20366;-87
2023/09/26 03:18:31;;;;;;;;;;;11.60;70.20;;;;;;4167023;28;19912;-87
2023/09/26 03:20:36;;;;;;;;;;;11.50;70.20;;;;;;4168780;28;19925;-87
2023/09/26 03:22:37;;;;;;;;;;;11.40;70.10;;;;;;4170351;28;20067;-87
2023/09/26 03:24:37;;;;;;;;;;;11.50;70.20;;;;;;4172135;28;19916;-88
2023/09/26 03:26:38;;;;;;;;;;;11.40;70.10;;;;;;4152441;28;19924;-88
2023/09/26 03:28:39;;;;;;;;;;;11.50;69.70;;;;;;4162167;28;19921;-87
2023/09/26 03:30:40;;;;;;;;;;;11.50;69.80;;;;;;4166905;28;20482;-88
2023/09/26 03:32:40;;;;;;;;;;;11.50;70.70;;;;;;4166798;28;19925;-87
2023/09/26 03:34:41;;;;;;;;;;;11.50;70.00;;;;;;4149616;28;19921;-87
2023/09/26 03:36:42;;;;;;;;;;;11.40;70.10;;;;;;4164413;28;19951;-87
2023/09/26 03:39:03;;;;;;;;;;;11.40;70.10;;;;;;4165949;28;19950;-87
2023/09/26 03:41:24;;;;;;;;;;;11.40;70.30;;;;;;4164117;28;19946;-88
2023/09/26 03:43:44;;;;;;;;;;;11.50;70.30;;;;;;4172505;28;19912;-88
2023/09/26 03:46:06;;;;;;;;;;;11.40;70.30;;;;;;4169240;28;19928;-88
2023/09/26 03:48:26;;;;;;;;;;;11.40;70.40;;;;;;4169312;28;19913;-87
2023/09/26 03:50:47;;;;;;;;;;;11.40;70.40;;;;;;4150674;28;19921;-87
2023/09/26 03:53:07;;;;;;;;;;;11.40;70.50;;;;;;4165862;28;19920;-87
2023/09/26 03:55:28;;;;;;;;;;;11.40;70.60;;;;;;4168321;28;20000;-88
2023/09/26 03:57:48;;;;;;;;;;;11.40;70.70;;;;;;4149658;28;20080;-88
2023/09/26 04:00:16;;;;;;;;;;;11.30;70.50;;;;;;4167027;28;19952;-87
2023/09/26 04:02:36;;;;;;;;;;;11.40;70.50;;;;;;4154210;28;19917;-87
2023/09/26 04:04:57;;;;;;;;;;;11.40;70.60;;;;;;4166073;28;19921;-87
2023/09/26 04:07:18;;;;;;;;;;;11.30;70.50;;;;;;4166802;28;19920;-87
2023/09/26 04:09:39;;;;;;;;;;;11.40;70.50;;;;;;4166784;28;21115;-88
2023/09/26 04:11:59;;;;;;;;;;;11.40;70.60;;;;;;4158520;28;19979;-88
2023/09/26 04:14:20;;;;;;;;;;;11.40;70.60;;;;;;4164164;28;19921;-87
2023/09/26 04:16:41;;;;;;;;;;;11.40;70.60;;;;;;4162335;28;19921;-87
2023/09/26 04:18:58;;;;;;;;;;;11.40;70.70;;;;;;4150040;28;19951;-87
2023/09/26 04:21:02;;;;;;;;;;;11.30;70.70;;;;;;4145341;28;19918;-87
2023/09/26 04:23:03;;;;;;;;;;;11.30;70.70;;;;;;4149933;28;20382;-88
2023/09/26 04:25:09;;;;;;;;;;;11.30;70.80;;;;;;4129737;28;19925;-87
2023/09/26 04:27:30;;;;;;;;;;;11.30;70.70;;;;;;4167750;28;19920;-87
2023/09/26 04:29:37;;;;;;;;;;;11.30;70.70;;;;;;4142482;28;19964;-87
2023/09/26 04:31:57;;;;;;;;;;;11.40;70.70;;;;;;4164399;28;19930;-87
2023/09/26 04:33:58;;;;;;;;;;;11.40;70.70;;;;;;4154370;28;20057;-87
2023/09/26 04:36:19;;;;;;;;;;;11.40;70.70;;;;;;4156947;28;19916;-87
2023/09/26 04:38:40;;;;;;;;;;;11.30;70.80;;;;;;4186970;28;19927;-90
2023/09/26 04:41:04;;;;;;;;;;;11.30;70.80;;;;;;4184463;28;19933;-87
2023/09/26 04:43:24;;;;;;;;;;;11.20;70.80;;;;;;4166591;28;19917;-87
2023/09/26 04:45:30;;;;;;;;;;;11.30;71.00;;;;;;4170009;28;19923;-87
2023/09/26 04:47:51;;;;;;;;;;;11.20;70.90;;;;;;4149904;28;19913;-88
2023/09/26 04:50:12;;;;;;;;;;;11.30;70.90;;;;;;4166082;28;19921;-87
2023/09/26 04:52:33;;;;;;;;;;;11.30;71.10;;;;;;4164391;28;20007;-87
2023/09/26 04:54:54;;;;;;;;;;;11.30;71.00;;;;;;4152905;28;19944;-87
2023/09/26 04:57:15;;;;;;;;;;;11.30;71.00;;;;;;4148542;28;19921;-89
2023/09/26 04:59:36;;;;;;;;;;;11.30;71.00;;;;;;4165077;28;19924;-88
2023/09/26 05:01:56;;;;;;;;;;;11.30;71.00;;;;;;4165218;28;19921;-87
2023/09/26 05:04:17;;;;;;;;;;;11.30;71.00;;;;;;4171235;28;19913;-88
2023/09/26 05:06:37;;;;;;;;;;;11.20;70.90;;;;;;4152649;28;19996;-87
2023/09/26 05:08:58;;;;;;;;;;;11.20;70.80;;;;;;4169230;28;19921;-87
2023/09/26 05:11:19;;;;;;;;;;;11.20;71.00;;;;;;4166433;28;19917;-87
2023/09/26 05:13:39;;;;;;;;;;;11.20;71.00;;;;;;4164517;28;19920;-87
2023/09/26 05:16:00;;;;;;;;;;;11.20;71.00;;;;;;4166275;28;19946;-88
2023/09/26 05:18:22;;;;;;;;;;;11.20;71.10;;;;;;4165956;28;19932;-87
2023/09/26 05:20:42;;;;;;;;;;;11.20;71.10;;;;;;4156863;28;19964;-86
2023/09/26 05:23:03;;;;;;;;;;;11.30;71.30;;;;;;4156280;28;19917;-88
2023/09/26 05:25:24;;;;;;;;;;;11.10;71.10;;;;;;4157499;28;19917;-87
2023/09/26 05:27:44;;;;;;;;;;;11.20;71.30;;;;;;4170510;28;19913;-89
2023/09/26 05:29:45;;;;;;;;;;;11.20;71.30;;;;;;4169567;28;19963;-87
2023/09/26 05:31:46;;;;;;;;;;;11.10;71.40;;;;;;4151442;28;19923;-87
2023/09/26 05:33:47;;;;;;;;;;;11.20;71.40;;;;;;4152273;28;19952;-87
2023/09/26 05:35:47;;;;;;;;;;;11.10;71.40;;;;;;4167926;28;21143;-87
2023/09/26 05:37:48;;;;;;;;;;;11.20;71.40;;;;;;4152684;28;20431;-87
2023/09/26 05:39:49;;;;;;;;;;;11.10;71.30;;;;;;4135496;28;19925;-87
2023/09/26 05:41:49;;;;;;;;;;;11.10;71.20;;;;;;4153605;28;19960;-88
2023/09/26 05:43:50;;;;;;;;;;;11.10;71.20;;;;;;4151416;28;20398;-87
2023/09/26 05:45:53;;;;;;;;;;;11.10;71.40;;;;;;4136261;28;20088;-87
2023/09/26 05:47:54;;;;;;;;;;;11.20;71.50;;;;;;4164634;28;20390;-87
2023/09/26 05:49:54;;;;;;;;;;;11.10;71.50;;;;;;4166636;28;19955;-88
2023/09/26 05:51:55;;;;;;;;;;;11.10;72.10;;;;;;4165728;28;19921;-87
2023/09/26 05:53:56;;;;;;;;;;;11.20;71.10;;;;;;4146702;28;20015;-87
2023/09/26 05:56:17;;;;;;;;;;;11.10;71.00;;;;;;4155708;28;19917;-88
2023/09/26 05:58:19;;;;;;;;;;;11.10;70.80;;;;;;4156605;28;19921;-88
2023/09/26 06:00:39;;;;;;;;;;;11.10;70.80;;;;;;4167641;28;19924;-87
2023/09/26 06:02:45;;;;;;;;;;;11.20;70.90;;;;;;4135347;28;19937;-87
2023/09/26 06:05:06;;;;;;;;;;;11.10;71.00;;;;;;4170136;28;19966;-87
2023/09/26 06:07:27;;;;;;;;;;;11.10;71.30;;;;;;4168277;28;20004;-87
2023/09/26 06:09:48;;;;;;;;;;;11.10;71.10;;;;;;4169279;28;19917;-87
2023/09/26 06:11:50;;;;;;;;;;;11.10;71.10;;;;;;4135634;28;19913;-87
2023/09/26 06:13:54;;;;;;;;;;;11.10;71.30;;;;;;4135145;28;19917;-88
2023/09/26 06:15:55;;;;;;;;;;;11.10;71.40;;;;;;4165548;28;21637;-88
2023/09/26 06:17:57;;;;;;;;;;;11.10;71.60;;;;;;4166633;28;19960;-87
2023/09/26 06:20:18;;;;;;;;;;;11.10;71.70;;;;;;4165124;28;19921;-87
2023/09/26 06:25:43;;;;;;;;;;;11.20;72.10;;;;;;4146884;28;19924;-87
2023/09/26 06:28:07;;;;;;;;;;;11.30;72.60;;;;;;4090715;28;19965;-87
2023/09/26 06:33:32;;;;;;;;;;;11.40;73.00;;;;;;4145453;28;20055;-87
2023/09/26 07:15:57;;;;;;;;;;;12.90;75.40;;;;;;4379208;22;20016;-87
2023/09/26 07:18:21;;;;;;;;;;;12.90;75.60;;;;;;4153082;28;19924;-87
2023/09/26 07:20:52;;;;;;;;;;;13.10;75.90;;;;;;4120657;28;19928;-88
2023/09/26 07:22:52;;;;;;;;;;;13.00;76.60;;;;;;4132883;28;20530;-87
2023/09/26 07:24:53;;;;;;;;;;;13.20;76.70;;;;;;4097619;28;19923;-87
2023/09/26 07:26:54;;;;;;;;;;;13.20;76.30;;;;;;4114771;28;21435;-88
2023/09/26 07:28:55;;;;;;;;;;;13.30;76.00;;;;;;4112980;28;20314;-87
2023/09/26 07:30:56;;;;;;;;;;;13.30;76.00;;;;;;4128303;28;20017;-88
2023/09/26 07:32:56;;;;;;;;;;;13.40;76.20;;;;;;4132409;28;19957;-88
2023/09/26 07:35:02;;;;;;;;;;;13.60;76.10;;;;;;4110334;28;20033;-88
2023/09/26 07:37:02;;;;;;;;;;;13.60;76.60;;;;;;4115387;28;19933;-87
2023/09/26 07:39:08;;;;;;;;;;;13.70;77.30;;;;;;4111131;28;19922;-87
2023/09/26 07:41:09;;;;;;;;;;;13.80;76.40;;;;;;4134002;28;20010;-87
2023/09/26 07:43:10;;;;;;;;;;;13.90;76.40;;;;;;4106049;28;19921;-87
2023/09/26 07:45:10;;;;;;;;;;;13.90;76.30;;;;;;4127137;28;19976;-87
2023/09/26 07:47:14;;;;;;;;;;;14.00;76.40;;;;;;4111318;28;19918;-88
2023/09/26 07:49:15;;;;;;;;;;;14.00;76.70;;;;;;4124855;28;20019;-87
2023/09/26 07:51:19;;;;;;;;;;;14.10;76.70;;;;;;4109790;28;20569;-87
2023/09/26 07:53:19;;;;;;;;;;;14.10;76.70;;;;;;4130582;28;19922;-88
2023/09/26 07:55:20;;;;;;;;;;;14.30;77.50;;;;;;4114015;28;19925;-87
2023/09/26 08:01:06;;;;;;;;;;;14.40;78.30;;;;;;4205056;22;19937;-88
2023/09/26 08:03:12;;;;;;;;;;;14.50;78.10;;;;;;4100396;28;19918;-88
2023/09/26 08:05:13;;;;;;;;;;;14.60;78.20;;;;;;4130892;28;19928;-87
2023/09/26 08:07:14;;;;;;;;;;;14.60;78.10;;;;;;4100091;28;19949;-88
2023/09/26 08:09:15;;;;;;;;;;;14.70;78.30;;;;;;4116627;28;19914;-87
2023/09/26 08:11:19;;;;;;;;;;;14.70;78.30;;;;;;4133824;28;19986;-87
2023/09/26 08:13:19;;;;;;;;;;;14.80;78.10;;;;;;4113141;28;19922;-88
2023/09/26 08:15:20;;;;;;;;;;;14.90;77.90;;;;;;4098600;28;19922;-87
2023/09/26 08:17:20;;;;;;;;;;;15.00;78.30;;;;;;4125536;28;19960;-88
2023/09/26 08:19:21;;;;;;;;;;;15.10;78.30;;;;;;4127524;28;19926;-88
2023/09/26 08:21:24;;;;;;;;;;;15.10;78.20;;;;;;4115721;28;20569;-87
2023/09/26 08:23:25;;;;;;;;;;;15.30;78.20;;;;;;4133299;28;19997;-87
2023/09/26 08:25:26;;;;;;;;;;;15.30;77.80;;;;;;4134950;28;20004;-87
2023/09/26 08:27:27;;;;;;;;;;;15.40;77.60;;;;;;4102992;28;20339;-87
2023/09/26 08:29:31;;;;;;;;;;;15.50;77.30;;;;;;4131242;28;19922;-88
2023/09/26 08:31:33;;;;;;;;;;;15.60;77.30;;;;;;4117115;28;19940;-88
2023/09/26 08:33:34;;;;;;;;;;;15.70;77.40;;;;;;4107528;28;19965;-88
2023/09/26 08:35:35;;;;;;;;;;;15.80;77.20;;;;;;4137312;28;20346;-89
2023/09/26 08:37:37;;;;;;;;;;;15.90;76.90;;;;;;4135877;28;19913;-88
2023/09/26 08:39:37;;;;;;;;;;;16.00;77.00;;;;;;4136545;28;19976;-87
2023/09/26 08:41:38;;;;;;;;;;;16.10;76.50;;;;;;4134009;28;19937;-89
2023/09/26 08:43:38;;;;;;;;;;;16.20;76.10;;;;;;4157885;28;19941;-89
2023/09/26 08:45:40;;;;;;;;;;;16.40;76.00;;;;;;4140929;28;19944;-87
2023/09/26 08:47:43;;;;;;;;;;;16.40;75.70;;;;;;4131265;28;19924;-88
2023/09/26 08:49:44;;;;;;;;;;;16.40;75.00;;;;;;4139399;28;19929;-87
2023/09/26 08:51:45;;;;;;;;;;;16.60;75.00;;;;;;4142071;28;20478;-87
2023/09/26 08:53:46;;;;;;;;;;;16.60;74.80;;;;;;4120488;28;19956;-88
2023/09/26 08:55:49;;;;;;;;;;;16.70;74.00;;;;;;4134874;28;19921;-87
2023/09/26 08:57:50;;;;;;;;;;;16.80;73.70;;;;;;4112380;28;19917;-87
2023/09/26 08:59:53;;;;;;;;;;;16.90;73.60;;;;;;4101673;28;19922;-87
2023/09/26 09:01:54;;;;;;;;;;;17.00;73.60;;;;;;4136078;28;19922;-87
2023/09/26 09:03:55;;;;;;;;;;;17.20;72.80;;;;;;4114249;28;19918;-87
2023/09/26 09:05:56;;;;;;;;;;;17.20;72.90;;;;;;4136758;28;20414;-87
2023/09/26 09:07:57;;;;;;;;;;;17.40;72.90;;;;;;4121595;28;19918;-87
2023/09/26 09:10:13;;;;;;;;;;;17.40;72.40;;;;;;4121781;28;19962;-87
2023/09/26 09:12:21;;;;;;;;;;;17.50;72.10;;;;;;4102477;28;19918;-87
2023/09/26 09:14:32;;;;;;;;;;;17.60;71.50;;;;;;4119530;28;20315;-88
2023/09/26 09:16:33;;;;;;;;;;;17.70;71.10;;;;;;4118927;28;19914;-88
2023/09/26 09:18:33;;;;;;;;;;;17.70;70.30;;;;;;4135782;28;19924;-88
2023/09/26 09:20:34;;;;;;;;;;;17.80;69.10;;;;;;4135357;28;19921;-87
2023/09/26 09:22:35;;;;;;;;;;;17.90;69.70;;;;;;4136508;28;20367;-87
2023/09/26 09:24:36;;;;;;;;;;;18.00;69.80;;;;;;4134067;28;21439;-88
2023/09/26 09:26:38;;;;;;;;;;;18.10;69.90;;;;;;4118708;28;20396;-87
2023/09/26 09:28:38;;;;;;;;;;;18.10;70.00;;;;;;4136866;28;19931;-87
2023/09/26 09:30:50;;;;;;;;;;;18.30;70.10;;;;;;4136823;28;21103;-88
2023/09/26 09:33:11;;;;;;;;;;;18.30;69.80;;;;;;4137414;28;19924;-88
2023/09/26 09:35:31;;;;;;;;;;;18.40;68.30;;;;;;4132793;28;19928;-88
2023/09/26 09:37:52;;;;;;;;;;;18.50;68.10;;;;;;4136784;28;19918;-89
2023/09/26 09:40:16;;;;;;;;;;;18.60;66.60;;;;;;4135323;28;19933;-88
2023/09/26 09:42:37;;;;;;;;;;;18.70;65.90;;;;;;4139063;28;19917;-87
2023/09/26 09:44:57;;;;;;;;;;;18.80;66.60;;;;;;4138778;28;20368;-87
2023/09/26 09:47:22;;;;;;;;;;;18.90;65.40;;;;;;4137799;28;19957;-88
2023/09/26 09:49:46;;;;;;;;;;;18.90;65.80;;;;;;4160536;28;19925;-87
2023/09/26 09:52:08;;;;;;;;;;;19.10;65.40;;;;;;4160764;28;19906;-87
2023/09/26 09:54:17;;;;;;;;;;;19.10;65.80;;;;;;4129796;28;20017;-88
2023/09/26 09:56:26;;;;;;;;;;;19.10;64.80;;;;;;4118076;28;20132;-88
2023/09/26 09:58:28;;;;;;;;;;;19.20;65.40;;;;;;4119610;28;19918;-88
2023/09/26 10:00:31;;;;;;;;;;;19.20;64.80;;;;;;4119781;28;19930;-88
2023/09/26 10:02:33;;;;;;;;;;;19.30;63.20;;;;;;4118995;28;19922;-89
2023/09/26 10:04:35;;;;;;;;;;;19.30;64.10;;;;;;4117637;28;20330;-89
2023/09/26 10:06:38;;;;;;;;;;;19.40;63.50;;;;;;4134003;28;20008;-87
2023/09/26 10:08:39;;;;;;;;;;;19.40;63.50;;;;;;4134082;28;19918;-89
2023/09/26 10:10:40;;;;;;;;;;;19.40;64.40;;;;;;4136816;28;20071;-87
2023/09/26 10:12:41;;;;;;;;;;;19.50;64.90;;;;;;4137365;28;19964;-88
2023/09/26 10:14:42;;;;;;;;;;;19.60;65.10;;;;;;4135561;28;19917;-89
2023/09/26 10:16:42;;;;;;;;;;;19.60;64.80;;;;;;4120517;28;20383;-87
2023/09/26 10:18:44;;;;;;;;;;;19.70;65.00;;;;;;4117328;28;20034;-89
2023/09/26 10:20:46;;;;;;;;;;;19.70;65.10;;;;;;4101112;28;20005;-89
2023/09/26 10:23:07;;;;;;;;;;;19.80;63.50;;;;;;4119470;28;19917;-88
2023/09/26 10:25:08;;;;;;;;;;;19.80;63.70;;;;;;4121606;28;19918;-88
2023/09/26 10:27:09;;;;;;;;;;;19.90;64.20;;;;;;4113850;28;20402;-89
2023/09/26 10:29:28;;;;;;;;;;;19.90;63.70;;;;;;4117548;28;19917;-88
2023/09/26 10:31:29;;;;;;;;;;;20.00;63.50;;;;;;4119802;28;19924;-89
2023/09/26 10:33:33;;;;;;;;;;;20.00;62.20;;;;;;4137380;28;19914;-88
2023/09/26 10:35:41;;;;;;;;;;;20.10;62.30;;;;;;4135583;28;19918;-88
2023/09/26 10:37:48;;;;;;;;;;;20.10;62.50;;;;;;4120367;28;19965;-88
2023/09/26 10:39:48;;;;;;;;;;;20.20;61.60;;;;;;4136271;28;20307;-87
2023/09/26 10:41:49;;;;;;;;;;;20.20;59.80;;;;;;4135232;28;19945;-88
2023/09/26 10:43:50;;;;;;;;;;;20.30;61.10;;;;;;4116132;28;20455;-87
2023/09/26 10:45:51;;;;;;;;;;;20.30;59.70;;;;;;4116874;28;20036;-88
2023/09/26 10:47:52;;;;;;;;;;;20.40;60.50;;;;;;4137401;28;19917;-87
2023/09/26 10:49:52;;;;;;;;;;;20.40;60.80;;;;;;4136807;28;19917;-87
2023/09/26 10:51:53;;;;;;;;;;;20.50;61.60;;;;;;4119546;28;19945;-89
2023/09/26 10:53:54;;;;;;;;;;;20.50;61.80;;;;;;4132671;28;20452;-89
2023/09/26 10:55:54;;;;;;;;;;;20.60;59.80;;;;;;4099828;28;19918;-89
2023/09/26 10:57:55;;;;;;;;;;;20.60;59.20;;;;;;4116316;28;19918;-88
2023/09/26 10:59:56;;;;;;;;;;;20.70;59.70;;;;;;4136520;28;21169;-89
2023/09/26 11:01:57;;;;;;;;;;;20.80;60.40;;;;;;4118341;28;19969;-90
2023/09/26 11:03:58;;;;;;;;;;;20.90;60.80;;;;;;4117913;28;19922;-88
2023/09/26 11:05:58;;;;;;;;;;;20.90;61.00;;;;;;4135051;28;20048;-87
2023/09/26 11:07:59;;;;;;;;;;;21.00;60.90;;;;;;4134759;28;19921;-87
2023/09/26 11:09:59;;;;;;;;;;;21.00;61.20;;;;;;4119467;28;19971;-88
2023/09/26 11:12:00;;;;;;;;;;;21.10;59.50;;;;;;4120706;28;19917;-88
2023/09/26 11:14:01;;;;;;;;;;;21.10;60.60;;;;;;4106362;28;20093;-88
2023/09/26 11:16:03;;;;;;;;;;;21.20;60.60;;;;;;4120357;28;19914;-88
2023/09/26 11:18:04;;;;;;;;;;;21.30;60.40;;;;;;4117363;28;19921;-87
2023/09/26 11:20:05;;;;;;;;;;;21.30;60.50;;;;;;4135953;28;19968;-86
2023/09/26 11:22:06;;;;;;;;;;;21.30;60.70;;;;;;4113559;28;19929;-86
2023/09/26 11:24:22;;;;;;;;;;;21.30;59.90;;;;;;4103864;28;19922;-86
2023/09/26 11:26:22;;;;;;;;;;;21.30;59.80;;;;;;4100311;28;19922;-87
2023/09/26 11:28:23;;;;;;;;;;;21.40;59.40;;;;;;4099157;28;19922;-87
2023/09/26 11:30:24;;;;;;;;;;;21.40;59.00;;;;;;4135167;28;19922;-87
2023/09/26 11:32:24;;;;;;;;;;;21.30;57.80;;;;;;4115073;28;19922;-86
2023/09/26 11:34:26;;;;;;;;;;;21.50;58.20;;;;;;4130973;28;20572;-87
2023/09/26 11:36:26;;;;;;;;;;;21.40;58.50;;;;;;4133115;28;20016;-87
2023/09/26 11:38:27;;;;;;;;;;;21.40;58.30;;;;;;4109755;28;19949;-86
2023/09/26 11:40:28;;;;;;;;;;;21.40;58.40;;;;;;4101170;28;19930;-87
2023/09/26 11:42:29;;;;;;;;;;;21.50;58.60;;;;;;4132433;28;19921;-86
2023/09/26 11:44:41;;;;;;;;;;;21.50;58.80;;;;;;4116121;28;19929;-87
2023/09/26 11:46:46;;;;;;;;;;;21.50;58.80;;;;;;4097458;28;19949;-86
2023/09/26 11:48:47;;;;;;;;;;;21.50;58.90;;;;;;4135774;28;19917;-87
2023/09/26 11:50:48;;;;;;;;;;;21.50;59.00;;;;;;4133026;28;19922;-87
2023/09/26 11:52:50;;;;;;;;;;;21.50;58.80;;;;;;4131094;28;19925;-88
2023/09/26 11:54:52;;;;;;;;;;;21.60;58.50;;;;;;4101767;28;19949;-87
2023/09/26 11:56:53;;;;;;;;;;;21.50;55.60;;;;;;4110200;28;20051;-86
2023/09/26 11:58:53;;;;;;;;;;;21.60;57.10;;;;;;4094485;28;19914;-87
2023/09/26 12:00:54;;;;;;;;;;;21.60;57.70;;;;;;4114213;28;19918;-87
2023/09/26 12:02:56;;;;;;;;;;;21.60;57.40;;;;;;4111693;28;19957;-88
2023/09/26 12:04:56;;;;;;;;;;;21.60;57.80;;;;;;4100455;28;19923;-88
2023/09/26 12:06:57;;;;;;;;;;;21.60;57.80;;;;;;4118325;28;19922;-87
2023/09/26 12:09:18;;;;;;;;;;;21.60;57.70;;;;;;4117027;28;19922;-86
2023/09/26 12:11:38;;;;;;;;;;;21.60;57.40;;;;;;4132133;28;19929;-88
2023/09/26 12:13:59;;;;;;;;;;;21.60;57.70;;;;;;4118085;28;20012;-88
2023/09/26 12:16:20;;;;;;;;;;;21.60;57.70;;;;;;4113630;28;20017;-88
2023/09/26 12:18:40;;;;;;;;;;;21.60;57.80;;;;;;4127473;28;19921;-87
2023/09/26 12:21:01;;;;;;;;;;;21.60;57.20;;;;;;4130522;28;20426;-87
2023/09/26 12:23:22;;;;;;;;;;;21.70;57.20;;;;;;4138082;28;20680;-88
2023/09/26 12:25:43;;;;;;;;;;;21.70;55.00;;;;;;4136236;28;20499;-87
2023/09/26 12:27:44;;;;;;;;;;;21.70;56.30;;;;;;4125586;28;19921;-88
2023/09/26 12:29:45;;;;;;;;;;;21.70;56.80;;;;;;4130916;28;20018;-88
2023/09/26 12:31:45;;;;;;;;;;;21.70;57.10;;;;;;4129007;28;20271;-87
2023/09/26 12:33:46;;;;;;;;;;;21.70;57.20;;;;;;4113395;28;19922;-87
2023/09/26 12:35:50;;;;;;;;;;;21.80;57.30;;;;;;4133858;28;20028;-87
2023/09/26 12:37:52;;;;;;;;;;;21.80;57.20;;;;;;4133240;28;19925;-88
2023/09/26 12:39:53;;;;;;;;;;;21.80;57.30;;;;;;4130345;28;19925;-86
2023/09/26 12:41:54;;;;;;;;;;;21.80;57.30;;;;;;4135333;28;20268;-87
2023/09/26 12:43:54;;;;;;;;;;;21.90;57.30;;;;;;4135636;28;19914;-88
2023/09/26 12:45:55;;;;;;;;;;;21.90;57.20;;;;;;4138094;28;19964;-87
2023/09/26 12:47:56;;;;;;;;;;;21.90;57.30;;;;;;4123405;28;19937;-87
2023/09/26 12:49:58;;;;;;;;;;;21.90;57.30;;;;;;4133857;28;19988;-86
2023/09/26 12:51:59;;;;;;;;;;;21.90;57.60;;;;;;4120871;28;20573;-87
2023/09/26 12:54:21;;;;;;;;;;;22.00;57.30;;;;;;4135703;28;20682;-88
2023/09/26 12:56:27;;;;;;;;;;;22.00;57.00;;;;;;4118279;28;19914;-88
2023/09/26 12:58:31;;;;;;;;;;;22.00;57.00;;;;;;4135218;28;20522;-88
2023/09/26 13:00:34;;;;;;;;;;;21.90;56.50;;;;;;4100127;28;20359;-87
2023/09/26 13:02:39;;;;;;;;;;;22.00;56.50;;;;;;4127019;28;19934;-89
2023/09/26 13:07:03;;;;;;;;;;;22.00;55.50;;;;;;4461366;23;20413;-88
2023/09/26 13:09:04;;;;;;;;;;;22.00;56.20;;;;;;4151338;28;20019;-87
2023/09/26 13:11:05;;;;;;;;;;;22.00;56.50;;;;;;4150863;28;21655;-87